Gladstone, NJ (07934)

2:01 PM EDT on May 27, 2015 (GMT -0400)
Far Hills | | Change Station
CLOSE
Current Station
Personal Weather Station
Location: Far Hills, NJ
Elevation: 151 ft
Nearby Weather Stations
Active Advisory: Severe Thunderstorm Watch

Elev 151 ft 40.68 °N, 74.64 °W | Updated 7 minutes ago

Overcast
Overcast
84.7 °F
Feels Like 90 °F
N
0.0
Wind Variable Wind from South
Gusts 7.0 mph

Today
High -- | Low -- °F
--% Chance of Precip.
Yesterday
High -- | Low -- °F
Precip. -- in
5:32 AM 8:19 PM
Waxing Gibbous, 69% visible
Pressure 30.10 in
Visibility 8.0 miles
Clouds Mostly Cloudy 3900 ft
Heat Index 90 °F
Dew Point 72 °F
Humidity 65%
Rainfall 0.00 in
Snow Depth Not available.
UV 6 out of 12
Pollen 4.90 out of 12
Air Quality Not available.
Flu Activity Sporadic
METAR KSMQ 271753Z AUTO 17007KT 8SM BKN039 29/21 A3010 RMK AO2 SLP191 T02890206 10294 20211 58016 TSNO

More Conditions Fewer Conditions

Pressure 30.10 in
Visibility 8.0 miles
Clouds Mostly Cloudy 3900 ft
Heat Index 90 °F
Dew Point 72 °F
Humidity 65%
Rainfall 0.00 in
Snow Depth Not available.
UV 6 out of 12
Pollen 4.90 out of 12
Air Quality Not available.
Flu Activity Sporadic
METAR KSMQ 271753Z AUTO 17007KT 8SM BKN039 29/21 A3010 RMK AO2 SLP191 T02890206 10294 20211 58016 TSNO

More Conditions Fewer Conditions

10-Day Weather Forecast

Almanac

Astronomy

May. 27, 2015 Rise Set
Actual Time
Civil Twilight
Nautical Twilight
Astronomical Twilight
Moon
Length of Visible Light
Length of Day
Tomorrow will be .
, % of the Moon is Illuminated

Today's Extremes

State Highs State Lows

Community

WunderPhotos

Upload Photos

1,824,736 photos uploaded!

WunderBlogs® & News

Nearby

Air Quality

  Air Quality AQ Index Pollutant
Not available.

Snow Depth

Station Depth Elevation

Earthquake Activity

City Distance Mag. Time & Date
Minimum magnitude displayed is 2.5.

Coastal Water Temperatures

Place Temperature

Stations

Nearby Weather Stations

Station Location Temp. Windchill Dew Point Humidity Wind Precip. Elev Updated Type
                   
Severe Thunderstorm Watch
Statement as of 1:59 PM EDT on May 27, 2015

Severe Thunderstorm Watch 227 remains in effect until 700 PM EDT

NJ
. New Jersey counties included are

Atlantic Bergen Burlington
Camden Cape May Cumberland
Essex Gloucester Hudson
Hunterdon Mercer Middlesex
Monmouth Morris ocean
Passaic Salem Somerset
Sussex eastern Union Warren